createdAt,value
2018-04-08T00:01:01.386Z,51.20
2018-04-08T00:03:31.018Z,57.60
2018-04-08T00:06:00.729Z,65.30
2018-04-08T00:08:30.334Z,56.40
2018-04-08T00:11:00.680Z,56.73
2018-04-08T00:13:31.394Z,59.70
2018-04-08T00:16:44.341Z,59.10
2018-04-08T00:19:20.386Z,64.27
2018-04-08T00:21:50.373Z,70.23
2018-04-08T00:24:20.069Z,74.53
2018-04-08T00:26:50.521Z,58.70
2018-04-08T00:32:46.700Z,70.67
2018-04-08T00:38:37.555Z,68.97
2018-04-08T00:41:06.794Z,69.60
2018-04-08T00:43:37.792Z,76.00
2018-04-08T00:46:08.094Z,68.20
2018-04-08T00:48:39.028Z,65.93
2018-04-08T00:54:36.373Z,85.20
2018-04-08T00:57:06.762Z,74.30
2018-04-08T00:59:36.414Z,80.43
2018-04-08T01:02:06.829Z,88.60
2018-04-08T01:04:36.448Z,87.43
2018-04-08T01:10:32.430Z,89.53
2018-04-08T01:13:03.008Z,91.30
2018-04-08T01:15:32.680Z,90.50
2018-04-08T01:18:02.201Z,96.57
2018-04-08T01:20:32.805Z,91.43
2018-04-08T01:23:02.447Z,93.97
2018-04-08T01:25:33.801Z,97.53
2018-04-08T01:28:08.412Z,94.27
2018-04-08T01:30:40.356Z,92.87
2018-04-08T01:33:12.548Z,97.57
2018-04-08T01:39:03.725Z,97.10
2018-04-08T01:41:33.333Z,100.80
2018-04-08T01:44:03.729Z,103.57
2018-04-08T01:46:33.392Z,104.00
2018-04-08T01:49:03.027Z,98.27
2018-04-08T01:51:32.836Z,98.87
2018-04-08T01:54:02.244Z,105.30
2018-04-08T01:56:31.730Z,97.07
2018-04-08T01:59:01.140Z,102.27
2018-04-08T02:01:30.605Z,90.60
2018-04-08T02:04:00.418Z,87.37
2018-04-08T02:06:29.889Z,84.47
2018-04-08T02:08:59.365Z,83.97
2018-04-08T02:11:33.363Z,79.57
2018-04-08T02:14:05.208Z,76.87
2018-04-08T02:16:37.122Z,75.27
2018-04-08T02:19:06.863Z,78.27
2018-04-08T02:21:36.270Z,84.70
2018-04-08T02:24:05.790Z,74.13
2018-04-08T02:26:35.290Z,65.87
2018-04-08T02:29:04.718Z,65.10
2018-04-08T02:31:34.206Z,67.77
2018-04-08T02:34:03.638Z,80.13
2018-04-08T02:36:33.176Z,68.83
2018-04-08T02:39:02.693Z,67.57
2018-04-08T02:41:32.096Z,58.63
2018-04-08T02:44:01.727Z,68.53
2018-04-08T02:46:31.363Z,47.90
2018-04-08T02:49:00.777Z,53.20
2018-04-08T02:51:32.736Z,57.03
2018-04-08T02:54:02.854Z,61.63
2018-04-08T02:56:32.430Z,58.90
2018-04-08T02:59:02.061Z,52.30
2018-04-08T03:01:31.461Z,52.87
2018-04-08T03:04:01.727Z,51.53
2018-04-08T03:06:31.369Z,49.40
2018-04-08T03:09:00.818Z,52.33
2018-04-08T03:11:30.428Z,47.60
2018-04-08T03:13:59.953Z,50.40
2018-04-08T03:16:30.238Z,51.47
2018-04-08T03:18:59.687Z,56.80
2018-04-08T03:21:29.050Z,60.37
2018-04-08T03:23:58.626Z,63.63
2018-04-08T03:26:28.087Z,61.30
2018-04-08T03:28:57.481Z,59.63
2018-04-08T03:31:27.017Z,55.43
2018-04-08T03:33:56.401Z,56.23
2018-04-08T03:36:26.048Z,58.40
2018-04-08T03:38:55.484Z,50.60
2018-04-08T03:41:25.653Z,53.90
2018-04-08T03:43:55.179Z,50.10
2018-04-08T03:46:24.563Z,50.07
2018-04-08T03:48:53.959Z,51.97
2018-04-08T03:51:23.410Z,54.27
2018-04-08T03:53:52.999Z,48.00
2018-04-08T03:56:22.556Z,52.73
2018-04-08T03:58:56.499Z,52.33
2018-04-08T04:01:26.177Z,56.03
2018-04-08T04:03:56.089Z,54.00
2018-04-08T04:06:25.637Z,61.37
2018-04-08T04:08:54.991Z,62.03
2018-04-08T04:11:24.584Z,62.23
2018-04-08T04:13:54.896Z,59.77
2018-04-08T04:16:25.326Z,63.10
2018-04-08T04:19:06.055Z,62.83
2018-04-08T04:21:46.603Z,63.77
2018-04-08T04:24:40.412Z,66.33
2018-04-08T04:27:47.943Z,66.73
2018-04-08T04:30:17.550Z,61.47
2018-04-08T04:32:48.202Z,58.50
2018-04-08T04:35:18.475Z,59.23
2018-04-08T04:37:48.219Z,51.57
2018-04-08T04:40:18.605Z,50.27
2018-04-08T04:42:48.456Z,51.97
2018-04-08T04:45:18.870Z,48.57
2018-04-08T04:47:48.506Z,51.23
2018-04-08T04:50:18.878Z,50.03
2018-04-08T04:52:48.789Z,49.03
2018-04-08T04:55:18.429Z,56.43
2018-04-08T04:57:48.235Z,52.83
2018-04-08T05:00:18.337Z,54.07
2018-04-08T05:02:48.391Z,56.13
2018-04-08T05:05:18.310Z,52.63
2018-04-08T05:07:49.036Z,54.40
2018-04-08T05:10:18.748Z,56.43
2018-04-08T05:12:48.325Z,56.17
2018-04-08T05:15:17.998Z,54.80
2018-04-08T05:17:47.564Z,56.83
2018-04-08T05:20:17.182Z,54.73
2018-04-08T05:22:46.862Z,48.17
2018-04-08T05:25:20.226Z,43.67
2018-04-08T05:27:50.010Z,47.57
2018-04-08T05:30:19.575Z,45.93
2018-04-08T05:32:49.197Z,45.67
2018-04-08T05:35:18.897Z,43.17
2018-04-08T05:37:48.707Z,48.07
2018-04-08T05:40:18.917Z,49.37
2018-04-08T05:42:48.760Z,47.83
2018-04-08T05:45:18.364Z,53.70
2018-04-08T05:47:48.028Z,51.33
2018-04-08T05:50:17.809Z,52.90
2018-04-08T05:52:47.522Z,52.30
2018-04-08T05:55:17.943Z,50.40
2018-04-08T05:57:47.602Z,54.33
2018-04-08T06:00:17.201Z,50.40
2018-04-08T06:02:46.873Z,54.13
2018-04-08T06:05:17.270Z,58.60
2018-04-08T06:07:46.898Z,54.53
2018-04-08T06:10:17.328Z,57.27
2018-04-08T06:12:47.798Z,50.43
2018-04-08T06:15:17.375Z,48.43
2018-04-08T06:17:47.851Z,43.30
2018-04-08T06:20:17.702Z,46.03
2018-04-08T06:22:47.289Z,44.63
2018-04-08T06:25:18.798Z,42.10
2018-04-08T06:27:48.534Z,41.27
2018-04-08T06:30:18.505Z,40.23
2018-04-08T06:36:19.306Z,44.50
2018-04-08T06:38:49.603Z,42.57
2018-04-08T06:41:19.760Z,38.93
2018-04-08T06:43:49.221Z,47.50
2018-04-08T06:49:40.336Z,47.00
2018-04-08T06:52:10.286Z,51.27
2018-04-08T06:54:40.201Z,45.57
2018-04-08T07:00:31.026Z,39.23
2018-04-08T07:03:00.596Z,40.30
2018-04-08T07:05:31.278Z,41.97
2018-04-08T07:11:32.181Z,43.40
2018-04-08T07:14:02.060Z,50.67
2018-04-08T07:16:32.371Z,55.90
2018-04-08T07:19:02.014Z,50.70
2018-04-08T07:21:32.727Z,53.53
2018-04-08T07:24:02.433Z,53.80
2018-04-08T07:26:32.978Z,68.57
2018-04-08T07:29:02.622Z,62.60
2018-04-08T07:31:32.256Z,58.47
2018-04-08T07:34:01.800Z,63.47
2018-04-08T07:36:31.425Z,65.83
2018-04-08T07:39:00.991Z,65.53
2018-04-08T07:41:30.600Z,72.53
2018-04-08T07:44:00.225Z,77.77
2018-04-08T07:46:29.862Z,79.63
2018-04-08T07:48:59.723Z,79.90
2018-04-08T07:51:29.402Z,76.37
2018-04-08T07:53:59.074Z,73.10
2018-04-08T07:56:29.551Z,77.20
2018-04-08T07:58:59.053Z,76.83
2018-04-08T08:01:28.726Z,85.40
2018-04-08T08:07:20.168Z,89.37
2018-04-08T08:09:50.317Z,88.57
2018-04-08T08:12:20.057Z,76.33
2018-04-08T08:14:49.698Z,76.33
2018-04-08T08:17:19.346Z,75.37
2018-04-08T08:19:49.052Z,67.93
2018-04-08T08:22:19.060Z,79.03
2018-04-08T08:24:49.497Z,77.60
2018-04-08T08:27:19.915Z,81.50
2018-04-08T08:29:50.127Z,81.17
2018-04-08T08:32:20.052Z,77.40
2018-04-08T08:34:49.819Z,71.37
2018-04-08T08:37:19.677Z,70.17
2018-04-08T08:39:50.128Z,69.37
2018-04-08T08:42:19.936Z,70.00
2018-04-08T08:44:50.026Z,66.50
2018-04-08T08:47:20.611Z,71.00
2018-04-08T08:49:50.258Z,72.40
2018-04-08T08:52:19.930Z,58.03
2018-04-08T08:54:49.599Z,56.43
2018-04-08T08:57:19.258Z,59.07
2018-04-08T08:59:49.027Z,64.67
2018-04-08T09:02:18.729Z,57.37
2018-04-08T09:04:48.534Z,60.73
2018-04-08T09:07:18.211Z,57.53
2018-04-08T09:09:47.834Z,60.97
2018-04-08T09:12:17.530Z,63.73
2018-04-08T09:14:47.430Z,68.27
2018-04-08T09:17:17.239Z,61.37
2018-04-08T09:19:51.117Z,65.33
2018-04-08T09:22:26.751Z,71.80
2018-04-08T09:25:02.401Z,73.67
2018-04-08T09:27:33.123Z,71.43
2018-04-08T09:33:02.860Z,74.30
2018-04-08T09:35:33.376Z,74.03
2018-04-08T09:38:03.105Z,77.53
2018-04-08T09:40:33.661Z,78.93
2018-04-08T09:43:03.959Z,84.03
2018-04-08T09:45:33.922Z,82.47
2018-04-08T09:48:03.892Z,82.67
2018-04-08T09:50:34.328Z,82.87
2018-04-08T09:53:04.960Z,87.73
2018-04-08T09:55:35.174Z,84.83
2018-04-08T09:58:21.374Z,93.20
2018-04-08T10:01:06.458Z,85.47
2018-04-08T10:03:36.369Z,83.07
2018-04-08T10:06:06.509Z,83.00
2018-04-08T10:08:36.568Z,87.03
2018-04-08T10:11:06.396Z,87.03
2018-04-08T10:13:36.532Z,87.93
2018-04-08T10:16:06.357Z,90.07
2018-04-08T10:21:58.470Z,85.30
2018-04-08T10:24:28.319Z,93.23
2018-04-08T10:26:58.007Z,92.63
2018-04-08T10:29:27.722Z,89.97
2018-04-08T10:31:57.405Z,94.67
2018-04-08T10:37:48.182Z,97.50
2018-04-08T10:40:18.541Z,94.77
2018-04-08T10:42:48.269Z,88.97
2018-04-08T10:45:17.900Z,88.07
2018-04-08T10:47:47.801Z,95.87
2018-04-08T10:50:17.473Z,93.17
2018-04-08T10:52:47.238Z,96.07
2018-04-08T10:55:16.957Z,93.00
2018-04-08T11:01:08.538Z,89.33
2018-04-08T11:03:37.840Z,91.07
2018-04-08T11:06:07.662Z,85.60
2018-04-08T11:12:08.011Z,117.70
2018-04-08T11:14:37.695Z,124.70
2018-04-08T11:17:07.254Z,113.23
2018-04-08T11:19:36.856Z,102.33
2018-04-08T11:22:06.371Z,122.87
2018-04-08T11:24:36.993Z,110.10
2018-04-08T11:27:06.501Z,126.53
2018-04-08T11:29:36.097Z,118.30
2018-04-08T11:32:05.694Z,118.27
2018-04-08T11:34:35.233Z,125.50
2018-04-08T11:37:05.053Z,136.53
2018-04-08T11:39:34.657Z,145.47
2018-04-08T11:42:04.185Z,155.00
2018-04-08T11:44:34.560Z,138.10
2018-04-08T11:47:04.133Z,152.90
2018-04-08T11:49:33.934Z,146.00
2018-04-08T11:52:03.493Z,143.03
2018-04-08T11:54:37.913Z,133.90
2018-04-08T11:57:07.678Z,141.67
2018-04-08T11:59:37.658Z,178.67
2018-04-08T12:02:07.450Z,183.70
2018-04-08T12:04:37.125Z,171.23
2018-04-08T12:07:06.656Z,186.40
2018-04-08T12:09:36.219Z,187.13
2018-04-08T12:12:06.709Z,165.43
2018-04-08T12:14:36.310Z,139.20
2018-04-08T12:17:06.050Z,149.60
2018-04-08T12:19:36.680Z,129.77
2018-04-08T12:22:06.393Z,120.73
2018-04-08T12:24:36.898Z,120.67
2018-04-08T12:27:08.087Z,117.87
2018-04-08T12:29:37.938Z,119.07
2018-04-08T12:32:07.619Z,102.73
2018-04-08T12:34:37.337Z,96.70
2018-04-08T12:37:06.965Z,79.90
2018-04-08T12:39:36.502Z,74.53
2018-04-08T12:42:06.026Z,67.73
2018-04-08T12:44:36.365Z,67.93
2018-04-08T12:47:11.712Z,60.60
2018-04-08T12:49:42.316Z,62.03
2018-04-08T12:52:13.998Z,56.93
2018-04-08T12:54:44.092Z,63.13
2018-04-08T12:57:13.620Z,62.30
2018-04-08T12:59:43.248Z,56.03
2018-04-08T13:02:12.989Z,55.50
2018-04-08T13:04:42.660Z,52.80
2018-04-08T13:07:12.216Z,48.57
2018-04-08T13:09:41.835Z,51.90
2018-04-08T13:12:11.529Z,51.40
2018-04-08T13:14:41.070Z,52.07
2018-04-08T13:17:11.422Z,51.17
2018-04-08T13:23:01.222Z,53.17
2018-04-08T13:25:30.911Z,46.83
2018-04-08T13:28:00.235Z,49.93
2018-04-08T13:30:29.754Z,53.87
2018-04-08T13:32:59.179Z,55.37
2018-04-08T13:35:28.539Z,53.73
2018-04-08T13:37:58.019Z,60.57
2018-04-08T13:40:27.435Z,65.23
2018-04-08T13:42:56.845Z,61.70
2018-04-08T13:45:26.361Z,67.80
2018-04-08T13:47:55.691Z,54.87
2018-04-08T13:50:25.463Z,65.73
2018-04-08T13:52:54.915Z,71.53
2018-04-08T13:55:24.381Z,55.07
2018-04-08T14:01:14.760Z,45.77
2018-04-08T14:03:43.976Z,38.83
2018-04-08T14:06:13.273Z,50.70
2018-04-08T14:08:42.664Z,41.70
2018-04-08T14:11:11.976Z,37.03
2018-04-08T14:13:41.424Z,43.53
2018-04-08T14:16:12.558Z,37.63
2018-04-08T14:18:42.534Z,34.93
2018-04-08T14:21:11.848Z,40.87
2018-04-08T14:23:41.245Z,33.00
2018-04-08T14:26:10.470Z,33.63
2018-04-08T14:28:40.556Z,37.07
2018-04-08T14:31:09.811Z,33.83
2018-04-08T14:33:39.225Z,31.53
2018-04-08T14:36:08.492Z,31.13
2018-04-08T14:38:37.954Z,36.03
2018-04-08T14:41:55.319Z,32.37
2018-04-08T14:44:25.861Z,35.87
2018-04-08T14:46:55.582Z,31.67
2018-04-08T14:49:26.734Z,36.93
2018-04-08T14:51:59.751Z,28.83
2018-04-08T14:54:30.197Z,34.40
2018-04-08T14:57:00.130Z,28.07
2018-04-08T14:59:30.826Z,28.67
2018-04-08T15:02:00.538Z,34.43
2018-04-08T15:04:30.244Z,33.22
2018-04-08T15:07:00.172Z,34.17
2018-04-08T15:09:29.909Z,37.50
2018-04-08T15:11:59.596Z,32.43
2018-04-08T15:14:29.557Z,30.03
2018-04-08T15:16:59.848Z,31.63
2018-04-08T15:19:30.089Z,34.57
2018-04-08T15:22:00.774Z,30.33
2018-04-08T15:24:30.495Z,29.95
2018-04-08T15:27:00.176Z,32.65
2018-04-08T15:29:29.948Z,34.22
2018-04-08T15:31:59.629Z,34.33
2018-04-08T15:34:29.346Z,30.27
2018-04-08T15:36:59.384Z,31.42
2018-04-08T15:39:30.401Z,29.15
2018-04-08T15:42:00.542Z,27.95
2018-04-08T15:44:30.307Z,26.62
2018-04-08T15:47:00.234Z,28.20
2018-04-08T15:49:30.165Z,27.35
2018-04-08T15:52:00.885Z,26.35
2018-04-08T15:54:30.927Z,20.20
2018-04-08T15:57:00.646Z,25.27
2018-04-08T16:02:51.952Z,23.40
2018-04-08T16:05:21.290Z,21.80
2018-04-08T16:07:50.804Z,20.35
2018-04-08T16:10:20.139Z,24.50
2018-04-08T16:16:12.131Z,19.30
2018-04-08T16:18:41.402Z,24.25
2018-04-08T16:21:10.731Z,20.62
2018-04-08T16:23:40.206Z,19.95
2018-04-08T16:26:09.407Z,23.75
2018-04-08T16:32:00.196Z,25.83
2018-04-08T16:34:30.000Z,25.00
2018-04-08T16:36:59.735Z,19.92
2018-04-08T16:39:30.582Z,26.23
2018-04-08T16:42:01.013Z,22.40
2018-04-08T16:44:35.883Z,24.30
2018-04-08T16:47:05.507Z,26.87
2018-04-08T16:49:35.209Z,22.67
2018-04-08T16:52:04.972Z,26.23
2018-04-08T16:54:34.610Z,29.70
2018-04-08T16:57:17.186Z,23.73
2018-04-08T17:03:11.552Z,20.35
2018-04-08T17:05:41.242Z,19.20
2018-04-08T17:08:11.124Z,16.60
2018-04-08T17:10:40.834Z,16.67
2018-04-08T17:13:10.601Z,13.05
2018-04-08T17:15:40.663Z,14.00
2018-04-08T17:18:11.254Z,14.60
2018-04-08T17:20:41.228Z,10.85
2018-04-08T17:23:11.289Z,9.73
2018-04-08T17:25:42.368Z,18.12
2018-04-08T17:28:13.106Z,18.40
2018-04-08T17:30:43.649Z,17.77
2018-04-08T17:33:13.528Z,18.42
2018-04-08T17:35:43.338Z,12.37
2018-04-08T17:38:13.016Z,15.02
2018-04-08T17:40:42.793Z,15.80
2018-04-08T17:43:12.723Z,11.23
2018-04-08T17:49:03.128Z,11.23
2018-04-08T17:51:32.401Z,13.35
2018-04-08T17:54:01.594Z,25.67
2018-04-08T17:56:30.953Z,12.70
2018-04-08T17:59:00.983Z,12.02
2018-04-08T18:01:30.352Z,12.18
2018-04-08T18:03:59.651Z,10.93
2018-04-08T18:06:29.055Z,15.00
2018-04-08T18:08:58.271Z,9.32
2018-04-08T18:11:27.676Z,9.48
2018-04-08T18:13:57.037Z,10.32
2018-04-08T18:16:26.433Z,15.63
2018-04-08T18:18:55.757Z,14.25
2018-04-08T18:21:25.146Z,17.90
2018-04-08T18:23:54.417Z,17.42
2018-04-08T18:26:23.768Z,13.60
2018-04-08T18:28:53.154Z,12.98
2018-04-08T18:31:22.523Z,14.57
2018-04-08T18:33:52.976Z,10.88
2018-04-08T18:36:22.231Z,16.35
2018-04-08T18:38:52.164Z,14.35
2018-04-08T18:41:21.832Z,11.57
2018-04-08T18:43:51.556Z,15.05
2018-04-08T18:46:21.172Z,11.90
2018-04-08T18:48:50.606Z,10.50
2018-04-08T18:51:20.030Z,17.35
2018-04-08T18:53:49.405Z,11.23
2018-04-08T18:56:18.690Z,13.43
2018-04-08T18:58:48.319Z,14.52
2018-04-08T19:01:17.747Z,15.30
2018-04-08T19:03:47.270Z,14.48
2018-04-08T19:06:16.634Z,21.73
2018-04-08T19:08:45.986Z,13.75
2018-04-08T19:11:15.260Z,15.18
2018-04-08T19:13:44.559Z,15.63
2018-04-08T19:16:14.512Z,26.25
2018-04-08T19:18:43.744Z,20.48
2018-04-08T19:21:13.090Z,15.98
2018-04-08T19:23:42.576Z,19.98
2018-04-08T19:26:11.935Z,17.50
2018-04-08T19:28:41.171Z,19.45
2018-04-08T19:31:10.774Z,15.63
2018-04-08T19:33:40.046Z,16.17
2018-04-08T19:36:09.390Z,23.85
2018-04-08T19:38:38.686Z,25.05
2018-04-08T19:41:07.988Z,28.38
2018-04-08T19:43:37.342Z,28.20
2018-04-08T19:46:06.591Z,27.10
2018-04-08T19:48:36.000Z,22.35
2018-04-08T19:51:05.192Z,20.62
2018-04-08T19:53:34.518Z,24.25
2018-04-08T19:56:03.778Z,22.95
2018-04-08T19:58:33.099Z,25.88
2018-04-08T20:01:02.300Z,25.15
2018-04-08T20:03:31.672Z,26.50
2018-04-08T20:06:01.038Z,30.67
2018-04-08T20:08:30.356Z,21.17
2018-04-08T20:10:59.701Z,21.87
2018-04-08T20:13:29.008Z,22.23
2018-04-08T20:15:58.697Z,31.60
2018-04-08T20:18:34.202Z,20.48
2018-04-08T20:21:03.913Z,38.03
2018-04-08T20:23:33.204Z,47.40
2018-04-08T20:26:02.777Z,46.17
2018-04-08T20:32:03.836Z,41.00
2018-04-08T20:34:33.599Z,38.73
2018-04-08T20:37:04.185Z,41.13
2018-04-08T20:39:33.989Z,37.30
2018-04-08T20:42:03.677Z,48.53
2018-04-08T20:44:33.528Z,42.43
2018-04-08T20:47:03.213Z,41.33
2018-04-08T20:49:33.053Z,41.90
2018-04-08T20:52:03.593Z,42.77
2018-04-08T20:54:33.341Z,41.30
2018-04-08T21:00:25.140Z,47.93
2018-04-08T21:02:55.004Z,40.63
2018-04-08T21:05:25.591Z,36.83
2018-04-08T21:08:02.925Z,40.73
2018-04-08T21:10:32.953Z,43.73
2018-04-08T21:13:02.664Z,42.43
2018-04-08T21:15:33.389Z,40.77
2018-04-08T21:18:03.101Z,45.80
2018-04-08T21:20:33.742Z,38.97
2018-04-08T21:23:04.584Z,43.77
2018-04-08T21:25:35.913Z,40.67
2018-04-08T21:28:05.695Z,40.53
2018-04-08T21:30:35.539Z,58.13
2018-04-08T21:33:05.383Z,37.43
2018-04-08T21:38:55.773Z,46.90
2018-04-08T21:41:26.198Z,37.40
2018-04-08T21:43:57.325Z,49.43
2018-04-08T21:46:27.271Z,44.87
2018-04-08T21:52:18.085Z,42.97
2018-04-08T21:54:47.755Z,44.37
2018-04-08T21:57:17.349Z,41.40
2018-04-08T21:59:47.074Z,41.90
2018-04-08T22:02:16.694Z,42.00
2018-04-08T22:04:46.428Z,46.30
2018-04-08T22:07:16.289Z,48.43
2018-04-08T22:09:45.889Z,49.07
2018-04-08T22:12:15.503Z,45.00
2018-04-08T22:14:45.268Z,46.10
2018-04-08T22:17:14.882Z,48.80
2018-04-08T22:19:46.786Z,48.47
2018-04-08T22:22:17.007Z,52.60
2018-04-08T22:24:46.813Z,44.70
2018-04-08T22:27:17.326Z,50.70
2018-04-08T22:29:47.065Z,54.50
2018-04-08T22:32:16.633Z,48.20
2018-04-08T22:34:46.298Z,45.83
2018-04-08T22:37:19.345Z,49.20
2018-04-08T22:39:49.021Z,50.83
2018-04-08T22:42:18.597Z,61.73
2018-04-08T22:44:48.313Z,50.63
2018-04-08T22:47:17.947Z,54.60
2018-04-08T22:49:47.589Z,48.50
2018-04-08T22:52:17.245Z,49.13
2018-04-08T22:54:46.987Z,57.13
2018-04-08T22:57:16.584Z,68.03
2018-04-08T22:59:46.368Z,69.13
2018-04-08T23:02:15.911Z,62.43
2018-04-08T23:04:45.416Z,54.33
2018-04-08T23:07:14.861Z,66.77
2018-04-08T23:09:44.226Z,63.97
2018-04-08T23:12:13.633Z,59.53
2018-04-08T23:14:43.161Z,70.07
2018-04-08T23:17:12.589Z,73.53
2018-04-08T23:19:42.139Z,70.10
2018-04-08T23:22:11.570Z,76.83
2018-04-08T23:24:41.065Z,92.63
2018-04-08T23:27:11.702Z,91.43
2018-04-08T23:29:41.135Z,103.97
2018-04-08T23:32:10.618Z,91.07
2018-04-08T23:34:41.357Z,91.57
2018-04-08T23:37:11.862Z,85.23
2018-04-08T23:39:45.726Z,73.27
2018-04-08T23:42:17.049Z,80.47
2018-04-08T23:48:43.451Z,82.00
2018-04-08T23:51:15.861Z,81.50
2018-04-08T23:53:45.364Z,78.13
2018-04-08T23:56:14.863Z,82.67
